createdAt,value
2023-06-30T00:00:14.701Z,94.94
2023-06-30T00:02:43.084Z,95.27
2023-06-30T00:05:11.120Z,96.94
2023-06-30T00:07:38.483Z,96.22
2023-06-30T00:10:07.344Z,96.52
2023-06-30T00:12:34.700Z,97.23
2023-06-30T00:15:02.130Z,97.58
2023-06-30T00:17:28.874Z,98.23
2023-06-30T00:19:59.029Z,97.55
2023-06-30T00:22:26.566Z,96.38
2023-06-30T00:24:57.291Z,96.03
2023-06-30T00:27:25.766Z,97.33
2023-06-30T00:29:52.544Z,98.43
2023-06-30T00:32:19.395Z,100.00
2023-06-30T00:34:46.144Z,100.00
2023-06-30T00:37:12.809Z,100.00
2023-06-30T00:39:39.415Z,99.74
2023-06-30T00:42:06.374Z,100.00
2023-06-30T00:44:33.031Z,99.72
2023-06-30T00:47:03.112Z,99.24
2023-06-30T00:49:29.979Z,100.00
2023-06-30T00:51:56.898Z,98.80
2023-06-30T00:54:23.670Z,99.70
2023-06-30T00:56:50.342Z,99.41
2023-06-30T00:59:17.075Z,99.21
2023-06-30T01:02:19.638Z,100.00
2023-06-30T01:05:07.426Z,99.74
2023-06-30T01:07:53.600Z,100.00
2023-06-30T01:10:25.952Z,100.00
2023-06-30T01:12:53.573Z,100.00
2023-06-30T01:15:21.400Z,100.00
2023-06-30T01:18:01.903Z,100.00
2023-06-30T01:20:34.370Z,100.00
2023-06-30T01:23:03.945Z,99.16
2023-06-30T01:25:31.147Z,98.73
2023-06-30T01:27:59.600Z,100.00
2023-06-30T01:30:30.781Z,100.00
2023-06-30T01:32:59.696Z,100.00
2023-06-30T01:35:28.735Z,100.00
2023-06-30T01:37:56.627Z,100.00
2023-06-30T01:40:24.002Z,100.00
2023-06-30T01:42:58.628Z,100.00
2023-06-30T01:45:27.863Z,100.00
2023-06-30T01:47:55.866Z,100.00
2023-06-30T01:50:23.631Z,100.00
2023-06-30T01:52:51.000Z,100.00
2023-06-30T01:55:18.259Z,100.00
2023-06-30T01:57:45.040Z,100.00
2023-06-30T02:00:12.332Z,100.00
2023-06-30T02:02:39.047Z,100.00
2023-06-30T02:05:05.882Z,100.00
2023-06-30T02:07:33.935Z,100.00
2023-06-30T02:10:00.792Z,100.00
2023-06-30T02:12:27.546Z,100.00
2023-06-30T02:14:54.543Z,100.00
2023-06-30T02:17:29.287Z,100.00
2023-06-30T02:19:56.020Z,100.00
2023-06-30T02:22:22.651Z,100.00
2023-06-30T02:24:49.306Z,100.00
2023-06-30T02:27:17.966Z,100.00
2023-06-30T02:29:44.975Z,100.00
2023-06-30T02:32:11.634Z,100.00
2023-06-30T02:34:38.247Z,100.00
2023-06-30T02:37:05.246Z,100.00
2023-06-30T02:39:31.947Z,100.00
2023-06-30T02:41:58.633Z,100.00
2023-06-30T02:44:25.398Z,100.00
2023-06-30T02:46:52.529Z,100.00
2023-06-30T02:49:19.141Z,100.00
2023-06-30T02:51:45.902Z,100.00
2023-06-30T02:54:12.511Z,100.00
2023-06-30T02:56:39.302Z,100.00
2023-06-30T02:59:07.255Z,100.00
2023-06-30T03:01:34.004Z,100.00
2023-06-30T03:04:01.437Z,100.00
2023-06-30T03:06:28.107Z,100.00
2023-06-30T03:08:54.774Z,100.00
2023-06-30T03:11:21.422Z,100.00
2023-06-30T03:13:48.252Z,100.00
2023-06-30T03:16:14.903Z,100.00
2023-06-30T03:18:41.747Z,100.00
2023-06-30T03:21:08.356Z,100.00
2023-06-30T03:23:35.013Z,100.00
2023-06-30T03:26:02.651Z,100.00
2023-06-30T03:28:30.440Z,100.00
2023-06-30T03:30:57.947Z,100.00
2023-06-30T03:33:24.699Z,100.00
2023-06-30T03:35:51.983Z,100.00
2023-06-30T03:38:18.713Z,100.00
2023-06-30T03:40:45.493Z,100.00
2023-06-30T03:43:12.373Z,100.00
2023-06-30T03:45:39.632Z,100.00
2023-06-30T03:48:06.562Z,100.00
2023-06-30T03:50:33.220Z,100.00
2023-06-30T03:52:59.904Z,100.00
2023-06-30T03:55:26.885Z,100.00
2023-06-30T03:57:53.641Z,100.00
2023-06-30T04:00:23.421Z,100.00
2023-06-30T04:02:50.088Z,100.00
2023-06-30T04:05:22.632Z,100.00
2023-06-30T04:07:50.042Z,100.00
2023-06-30T04:10:16.784Z,100.00
2023-06-30T04:12:43.850Z,100.00
2023-06-30T04:15:11.962Z,100.00
2023-06-30T04:17:38.854Z,100.00
2023-06-30T04:20:10.802Z,100.00
2023-06-30T04:22:38.500Z,100.00
2023-06-30T04:25:07.622Z,100.00
2023-06-30T04:27:34.560Z,100.00
2023-06-30T04:30:01.439Z,100.00
2023-06-30T04:32:28.081Z,100.00
2023-06-30T04:34:54.864Z,100.00
2023-06-30T04:37:25.199Z,100.00
2023-06-30T04:39:52.023Z,100.00
2023-06-30T04:42:18.693Z,100.00
2023-06-30T04:44:45.385Z,100.00
2023-06-30T04:47:12.066Z,100.00
2023-06-30T04:49:38.774Z,100.00
2023-06-30T04:52:05.871Z,100.00
2023-06-30T04:54:35.367Z,100.00
2023-06-30T04:57:02.056Z,100.00
2023-06-30T04:59:28.843Z,100.00
2023-06-30T05:01:56.204Z,100.00
2023-06-30T05:04:23.036Z,100.00
2023-06-30T05:06:49.726Z,100.00
2023-06-30T05:09:17.212Z,100.00
2023-06-30T05:11:43.840Z,100.00
2023-06-30T05:14:10.454Z,100.00
2023-06-30T05:16:37.120Z,100.00
2023-06-30T05:19:04.368Z,100.00
2023-06-30T05:21:31.064Z,100.00
2023-06-30T05:23:57.947Z,100.00
2023-06-30T05:26:24.597Z,100.00
2023-06-30T05:29:03.594Z,100.00
2023-06-30T05:31:31.719Z,100.00
2023-06-30T05:33:58.408Z,100.00
2023-06-30T05:36:27.132Z,100.00
2023-06-30T05:38:53.786Z,100.00
2023-06-30T05:41:20.481Z,100.00
2023-06-30T05:43:47.191Z,100.00
2023-06-30T05:46:13.915Z,100.00
2023-06-30T05:48:40.569Z,100.00
2023-06-30T05:51:07.433Z,100.00
2023-06-30T05:53:34.085Z,100.00
2023-06-30T05:56:00.910Z,100.00
2023-06-30T05:58:27.619Z,100.00
2023-06-30T06:00:54.359Z,100.00
2023-06-30T06:03:21.257Z,100.00
2023-06-30T06:05:48.414Z,100.00
2023-06-30T06:08:15.506Z,100.00
2023-06-30T06:10:42.223Z,100.00
2023-06-30T06:13:09.583Z,100.00
2023-06-30T06:15:36.270Z,100.00
2023-06-30T06:18:03.048Z,100.00
2023-06-30T06:20:29.906Z,100.00
2023-06-30T06:22:56.700Z,100.00
2023-06-30T06:25:23.310Z,100.00
2023-06-30T06:27:49.893Z,100.00
2023-06-30T06:30:16.509Z,100.00
2023-06-30T06:32:43.269Z,100.00
2023-06-30T06:35:09.952Z,100.00
2023-06-30T06:37:37.179Z,100.00
2023-06-30T06:40:04.160Z,100.00
2023-06-30T06:42:30.772Z,100.00
2023-06-30T06:44:57.511Z,100.00
2023-06-30T06:48:01.697Z,100.00
2023-06-30T06:50:28.507Z,100.00
2023-06-30T06:52:55.366Z,100.00
2023-06-30T06:55:24.203Z,100.00
2023-06-30T06:57:50.884Z,100.00
2023-06-30T07:00:18.148Z,99.85
2023-06-30T07:02:44.955Z,100.00
2023-06-30T07:05:12.282Z,100.00
2023-06-30T07:07:39.299Z,99.70
2023-06-30T07:10:06.969Z,100.00
2023-06-30T07:12:33.756Z,99.94
2023-06-30T07:15:00.448Z,99.26
2023-06-30T07:17:27.647Z,99.88
2023-06-30T07:19:54.308Z,98.74
2023-06-30T07:22:22.632Z,98.20
2023-06-30T07:24:49.775Z,96.92
2023-06-30T07:27:16.359Z,97.51
2023-06-30T07:29:43.081Z,97.34
2023-06-30T07:32:09.803Z,98.38
2023-06-30T07:34:38.395Z,100.00
2023-06-30T07:37:06.194Z,95.64
2023-06-30T07:39:34.713Z,100.00
2023-06-30T07:42:01.684Z,95.43
2023-06-30T07:44:28.352Z,94.19
2023-06-30T07:46:55.057Z,95.03
2023-06-30T07:49:24.690Z,94.46
2023-06-30T07:51:51.982Z,93.30
2023-06-30T07:54:18.756Z,94.29
2023-06-30T07:56:47.139Z,92.71
2023-06-30T07:59:13.789Z,94.92
2023-06-30T08:01:40.401Z,93.71
2023-06-30T08:04:10.521Z,94.15
2023-06-30T08:06:37.479Z,94.65
2023-06-30T08:09:04.956Z,92.88
2023-06-30T08:11:32.062Z,92.83
2023-06-30T08:14:00.887Z,91.62
2023-06-30T08:16:27.634Z,89.71
2023-06-30T08:18:54.692Z,91.62
2023-06-30T08:21:23.520Z,88.67
2023-06-30T08:23:50.197Z,90.36
2023-06-30T08:26:17.371Z,87.91
2023-06-30T08:28:44.954Z,89.47
2023-06-30T08:31:11.725Z,89.57
2023-06-30T08:33:41.215Z,88.57
2023-06-30T08:36:08.301Z,89.74
2023-06-30T08:38:35.638Z,87.34
2023-06-30T08:41:04.777Z,87.53
2023-06-30T08:43:33.322Z,89.40
2023-06-30T08:46:03.279Z,88.22
2023-06-30T08:48:31.587Z,87.61
2023-06-30T08:51:01.992Z,87.41
2023-06-30T08:53:30.217Z,87.29
2023-06-30T08:55:59.265Z,88.23
2023-06-30T08:58:29.338Z,88.04
2023-06-30T09:00:59.047Z,87.61
2023-06-30T09:03:27.331Z,85.95
2023-06-30T09:05:56.925Z,89.99
2023-06-30T09:08:27.872Z,87.05
2023-06-30T09:10:56.128Z,88.18
2023-06-30T09:13:25.612Z,84.64
2023-06-30T09:15:56.785Z,86.62
2023-06-30T09:18:24.057Z,88.52
2023-06-30T09:20:51.091Z,87.00
2023-06-30T09:23:18.226Z,87.11
2023-06-30T09:25:45.341Z,86.47
2023-06-30T09:28:15.024Z,86.41
2023-06-30T09:30:45.709Z,85.51
2023-06-30T09:33:17.791Z,83.51
2023-06-30T09:35:47.969Z,84.56
2023-06-30T09:38:20.920Z,81.87
2023-06-30T09:40:50.081Z,84.87
2023-06-30T09:43:23.044Z,81.44
2023-06-30T09:46:03.161Z,77.38
2023-06-30T09:48:36.447Z,76.92
2023-06-30T09:51:05.996Z,76.83
2023-06-30T09:53:39.293Z,73.12
2023-06-30T09:56:08.667Z,74.35
2023-06-30T09:58:37.850Z,69.08
2023-06-30T10:01:04.591Z,70.69
2023-06-30T10:03:33.666Z,71.93
2023-06-30T10:06:01.700Z,70.28
2023-06-30T10:08:29.137Z,70.18
2023-06-30T10:10:58.068Z,69.29
2023-06-30T10:13:26.949Z,68.98
2023-06-30T10:15:53.731Z,68.74
2023-06-30T10:18:28.390Z,75.34
2023-06-30T10:20:55.149Z,67.26
2023-06-30T10:23:24.208Z,72.93
2023-06-30T10:25:51.951Z,66.96
2023-06-30T10:28:19.700Z,74.40
2023-06-30T10:30:48.042Z,69.82
2023-06-30T10:33:14.901Z,74.38
2023-06-30T10:35:42.775Z,66.80
2023-06-30T10:38:11.457Z,67.81
2023-06-30T10:40:38.117Z,70.26
2023-06-30T10:43:07.133Z,70.50
2023-06-30T10:46:10.435Z,73.76
2023-06-30T10:48:40.330Z,71.27
2023-06-30T10:51:09.227Z,69.05
2023-06-30T10:53:36.054Z,66.80
2023-06-30T10:56:03.883Z,68.46
2023-06-30T10:58:32.950Z,67.14
2023-06-30T11:01:07.182Z,70.01
2023-06-30T11:03:59.464Z,70.19
2023-06-30T11:06:27.457Z,69.50
2023-06-30T11:09:02.045Z,64.94
2023-06-30T11:11:29.144Z,71.97
2023-06-30T11:14:08.555Z,68.78
2023-06-30T11:17:03.222Z,63.99
2023-06-30T11:19:29.849Z,61.31
2023-06-30T11:22:21.860Z,62.57
2023-06-30T11:24:49.084Z,70.44
2023-06-30T11:27:16.811Z,63.96
2023-06-30T11:29:44.063Z,69.56
2023-06-30T11:32:11.039Z,67.36
2023-06-30T11:34:38.120Z,71.87
2023-06-30T11:37:08.209Z,71.56
2023-06-30T11:39:37.843Z,65.71
2023-06-30T11:42:04.591Z,64.27
2023-06-30T11:44:36.740Z,66.23
2023-06-30T11:47:03.732Z,65.02
2023-06-30T11:49:30.721Z,66.10
2023-06-30T11:51:57.433Z,65.14
2023-06-30T11:54:34.304Z,61.57
2023-06-30T11:57:01.550Z,63.18
2023-06-30T11:59:29.031Z,61.43
2023-06-30T12:01:55.689Z,64.56
2023-06-30T12:04:22.535Z,67.64
2023-06-30T12:06:50.262Z,63.06
2023-06-30T12:09:17.152Z,56.87
2023-06-30T12:11:45.896Z,56.61
2023-06-30T12:14:16.646Z,65.77
2023-06-30T12:16:44.302Z,55.66
2023-06-30T12:19:11.621Z,52.00
2023-06-30T12:21:52.102Z,60.07
2023-06-30T12:24:22.879Z,54.71
2023-06-30T12:26:50.936Z,58.50
2023-06-30T12:29:18.559Z,56.98
2023-06-30T12:31:49.075Z,48.42
2023-06-30T12:34:37.465Z,56.47
2023-06-30T12:37:04.742Z,52.26
2023-06-30T12:39:31.439Z,50.03
2023-06-30T12:41:58.146Z,52.28
2023-06-30T12:44:25.181Z,48.70
2023-06-30T12:47:09.422Z,50.60
2023-06-30T12:49:38.458Z,44.46
2023-06-30T12:52:05.733Z,52.21
2023-06-30T12:54:33.328Z,50.66
2023-06-30T12:57:00.061Z,43.41
2023-06-30T12:59:26.844Z,49.65
2023-06-30T13:01:54.024Z,48.81
2023-06-30T13:04:20.897Z,49.99
2023-06-30T13:06:47.585Z,39.87
2023-06-30T13:09:15.317Z,39.64
2023-06-30T13:11:42.737Z,42.74
2023-06-30T13:14:12.031Z,37.93
2023-06-30T13:16:40.462Z,39.63
2023-06-30T13:19:07.131Z,41.92
2023-06-30T13:21:33.835Z,37.69
2023-06-30T13:24:00.684Z,34.43
2023-06-30T13:26:27.297Z,35.24
2023-06-30T13:28:53.960Z,38.19
2023-06-30T13:31:20.618Z,40.87
2023-06-30T13:33:49.377Z,38.34
2023-06-30T13:36:16.023Z,33.44
2023-06-30T13:38:44.500Z,36.83
2023-06-30T13:41:11.265Z,39.74
2023-06-30T13:43:37.915Z,39.18
2023-06-30T13:46:05.654Z,39.30
2023-06-30T13:48:32.994Z,38.07
2023-06-30T13:50:59.910Z,36.18
2023-06-30T13:53:26.631Z,35.91
2023-06-30T13:55:53.755Z,35.78
2023-06-30T13:58:20.707Z,33.39
2023-06-30T14:00:48.178Z,38.54
2023-06-30T14:03:15.681Z,38.20
2023-06-30T14:05:47.480Z,39.04
2023-06-30T14:08:14.325Z,36.05
2023-06-30T14:10:40.921Z,36.67
2023-06-30T14:13:07.607Z,35.58
2023-06-30T14:15:34.426Z,34.47
2023-06-30T14:18:01.142Z,33.69
2023-06-30T14:20:28.007Z,32.80
2023-06-30T14:22:54.613Z,33.49
2023-06-30T14:25:23.145Z,34.11
2023-06-30T14:27:50.374Z,34.84
2023-06-30T14:30:17.227Z,32.56
2023-06-30T14:32:44.543Z,32.48
2023-06-30T14:35:11.839Z,32.93
2023-06-30T14:37:38.708Z,34.68
2023-06-30T14:40:09.676Z,32.02
2023-06-30T14:42:36.367Z,34.91
2023-06-30T14:45:04.895Z,34.95
2023-06-30T14:47:31.639Z,34.76
2023-06-30T14:49:58.854Z,37.98
2023-06-30T14:52:26.066Z,36.67
2023-06-30T14:54:52.739Z,38.12
2023-06-30T14:57:19.414Z,36.49
2023-06-30T14:59:46.043Z,39.74
2023-06-30T15:02:12.837Z,36.94
2023-06-30T15:04:39.726Z,35.77
2023-06-30T15:07:06.628Z,37.42
2023-06-30T15:09:33.279Z,37.12
2023-06-30T15:11:59.937Z,36.83
2023-06-30T15:14:29.488Z,38.88
2023-06-30T15:16:56.088Z,35.84
2023-06-30T15:19:22.746Z,35.84
2023-06-30T15:21:53.263Z,36.46
2023-06-30T15:24:19.753Z,33.74
2023-06-30T15:26:46.478Z,34.23
2023-06-30T15:29:13.234Z,34.33
2023-06-30T15:31:40.852Z,32.82
2023-06-30T15:34:07.764Z,34.77
2023-06-30T15:36:34.584Z,32.66
2023-06-30T15:39:02.073Z,31.41
2023-06-30T15:41:28.748Z,32.39
2023-06-30T15:43:55.378Z,33.06
2023-06-30T15:46:22.082Z,32.51
2023-06-30T15:48:48.782Z,33.64
2023-06-30T15:51:15.582Z,31.92
2023-06-30T15:53:42.302Z,34.02
2023-06-30T15:56:09.017Z,33.13
2023-06-30T15:58:35.655Z,32.50
2023-06-30T16:01:02.227Z,34.64
2023-06-30T16:03:31.254Z,33.98
2023-06-30T16:05:58.091Z,30.85
2023-06-30T16:08:24.780Z,34.08
2023-06-30T16:10:51.898Z,32.48
2023-06-30T16:13:18.596Z,33.85
2023-06-30T16:15:45.698Z,32.00
2023-06-30T16:18:12.771Z,34.32
2023-06-30T16:20:39.466Z,34.14
2023-06-30T16:23:06.072Z,31.69
2023-06-30T16:25:32.968Z,32.88
2023-06-30T16:27:59.641Z,34.04
2023-06-30T16:30:31.334Z,34.14
2023-06-30T16:32:58.554Z,33.10
2023-06-30T16:35:26.141Z,32.81
2023-06-30T16:37:53.528Z,33.16
2023-06-30T16:40:20.882Z,32.95
2023-06-30T16:42:48.106Z,31.66
2023-06-30T16:45:14.891Z,33.80
2023-06-30T16:47:43.395Z,30.18
2023-06-30T16:50:11.828Z,31.26
2023-06-30T16:52:39.817Z,31.68
2023-06-30T16:55:07.833Z,33.60
2023-06-30T16:57:34.467Z,33.51
2023-06-30T17:00:06.089Z,33.93
2023-06-30T17:02:34.068Z,33.20
2023-06-30T17:05:00.878Z,33.39
2023-06-30T17:07:27.719Z,35.82
2023-06-30T17:09:54.667Z,38.48
2023-06-30T17:12:22.007Z,33.36
2023-06-30T17:14:48.678Z,33.63
2023-06-30T17:17:15.423Z,34.06
2023-06-30T17:19:42.284Z,35.85
2023-06-30T17:22:09.296Z,34.02
2023-06-30T17:24:35.912Z,34.97
2023-06-30T17:27:02.523Z,34.62
2023-06-30T17:29:29.179Z,34.03
2023-06-30T17:31:55.830Z,35.82
2023-06-30T17:34:22.986Z,38.72
2023-06-30T17:36:59.924Z,38.88
2023-06-30T17:39:26.594Z,38.18
2023-06-30T17:41:53.241Z,40.46
2023-06-30T17:44:20.722Z,38.36
2023-06-30T17:46:47.537Z,39.98
2023-06-30T17:49:26.097Z,40.04
2023-06-30T17:51:53.039Z,40.50
2023-06-30T17:54:21.942Z,41.56
2023-06-30T17:56:49.417Z,40.62
2023-06-30T17:59:17.131Z,41.13
2023-06-30T18:01:47.020Z,38.72
2023-06-30T18:04:15.224Z,40.92
2023-06-30T18:07:13.228Z,40.31
2023-06-30T18:09:45.090Z,41.92
2023-06-30T18:12:12.390Z,41.70
2023-06-30T18:14:42.277Z,41.39
2023-06-30T18:17:09.134Z,42.46
2023-06-30T18:19:36.789Z,42.32
2023-06-30T18:22:03.991Z,41.25
2023-06-30T18:24:30.681Z,41.72
2023-06-30T18:26:57.379Z,42.02
2023-06-30T18:29:24.838Z,42.77
2023-06-30T18:31:53.586Z,43.19
2023-06-30T18:34:22.438Z,40.54
2023-06-30T18:36:49.156Z,42.75
2023-06-30T18:39:16.925Z,42.33
2023-06-30T18:41:44.413Z,42.78
2023-06-30T18:44:13.059Z,41.82
2023-06-30T18:46:39.764Z,41.75
2023-06-30T18:54:49.148Z,42.52
2023-06-30T18:57:15.771Z,42.52
2023-06-30T18:59:44.623Z,42.90
2023-06-30T19:02:11.458Z,42.59
2023-06-30T19:04:38.182Z,42.35
2023-06-30T19:07:05.177Z,41.89
2023-06-30T19:09:31.839Z,42.39
2023-06-30T19:11:59.789Z,43.51
2023-06-30T19:14:26.592Z,42.49
2023-06-30T19:16:53.918Z,43.45
2023-06-30T19:19:22.220Z,44.02
2023-06-30T19:21:48.880Z,44.28
2023-06-30T19:24:16.313Z,44.61
2023-06-30T19:26:43.048Z,44.66
2023-06-30T19:29:09.647Z,44.75
2023-06-30T19:31:37.921Z,44.95
2023-06-30T19:34:04.678Z,45.31
2023-06-30T19:36:33.547Z,45.89
2023-06-30T19:39:00.507Z,47.91
2023-06-30T19:41:28.009Z,47.05
2023-06-30T19:43:55.080Z,47.91
2023-06-30T19:46:21.819Z,47.41
2023-06-30T19:48:48.496Z,47.33
2023-06-30T19:51:15.302Z,47.57
2023-06-30T19:53:42.005Z,47.60
2023-06-30T19:56:14.301Z,48.19
2023-06-30T19:58:44.220Z,48.56
2023-06-30T20:01:10.909Z,50.54
2023-06-30T20:03:38.367Z,50.77
2023-06-30T20:06:05.141Z,49.10
2023-06-30T20:08:31.762Z,50.54
2023-06-30T20:10:58.512Z,50.22
2023-06-30T20:13:25.153Z,50.96
2023-06-30T20:15:51.772Z,52.16
2023-06-30T20:18:18.742Z,52.93
2023-06-30T20:20:46.399Z,52.31
2023-06-30T20:23:13.077Z,52.15
2023-06-30T20:25:39.710Z,52.00
2023-06-30T20:28:06.347Z,52.77
2023-06-30T20:30:32.958Z,53.19
2023-06-30T20:32:59.881Z,53.17
2023-06-30T20:35:26.510Z,54.80
2023-06-30T20:37:53.260Z,54.41
2023-06-30T20:40:19.905Z,53.92
2023-06-30T20:42:46.686Z,54.42
2023-06-30T20:45:13.411Z,55.45
2023-06-30T20:47:40.476Z,54.91
2023-06-30T20:50:09.318Z,55.93
2023-06-30T20:52:36.746Z,56.87
2023-06-30T20:55:03.642Z,55.89
2023-06-30T20:57:30.300Z,58.20
2023-06-30T20:59:56.941Z,55.79
2023-06-30T21:02:23.979Z,56.26
2023-06-30T21:04:50.710Z,58.02
2023-06-30T21:07:18.460Z,57.30
2023-06-30T21:09:45.086Z,56.46
2023-06-30T21:12:11.664Z,57.13
2023-06-30T21:14:38.620Z,60.26
2023-06-30T21:17:05.638Z,58.81
2023-06-30T21:19:32.457Z,60.46
2023-06-30T21:22:03.254Z,62.78
2023-06-30T21:24:30.712Z,59.21
2023-06-30T21:26:58.148Z,61.23
2023-06-30T21:29:24.722Z,59.92
2023-06-30T21:31:51.420Z,62.17
2023-06-30T21:34:18.102Z,60.50
2023-06-30T21:36:44.813Z,61.33
2023-06-30T21:39:11.514Z,59.82
2023-06-30T21:41:41.189Z,60.53
2023-06-30T21:44:08.222Z,61.18
2023-06-30T21:46:35.127Z,63.03
2023-06-30T21:49:01.981Z,62.85
2023-06-30T21:51:28.710Z,63.59
2023-06-30T21:53:57.004Z,64.13
2023-06-30T21:56:23.613Z,64.96
2023-06-30T21:58:51.823Z,63.56
2023-06-30T22:01:22.769Z,65.83
2023-06-30T22:03:52.551Z,66.28
2023-06-30T22:06:19.219Z,65.77
2023-06-30T22:08:45.843Z,63.93
2023-06-30T22:11:12.499Z,64.62
2023-06-30T22:13:39.161Z,66.00
2023-06-30T22:16:06.297Z,63.89
2023-06-30T22:18:33.105Z,64.60
2023-06-30T22:20:59.826Z,65.50
2023-06-30T22:23:26.710Z,64.20
2023-06-30T22:25:53.823Z,66.73
2023-06-30T22:28:20.499Z,67.07
2023-06-30T22:30:49.829Z,67.81
2023-06-30T22:33:16.619Z,68.85
2023-06-30T22:35:43.205Z,68.52
2023-06-30T22:38:10.796Z,68.70
2023-06-30T22:40:37.441Z,68.33
2023-06-30T22:43:04.074Z,68.62
2023-06-30T22:45:30.744Z,68.40
2023-06-30T22:47:57.453Z,68.16
2023-06-30T22:50:24.079Z,67.61
2023-06-30T22:52:50.795Z,68.25
2023-06-30T22:55:17.393Z,68.92
2023-06-30T22:57:44.032Z,70.35
2023-06-30T23:00:11.116Z,71.49
2023-06-30T23:02:37.946Z,70.98
2023-06-30T23:05:05.140Z,71.68
2023-06-30T23:07:31.810Z,71.63
2023-06-30T23:09:58.605Z,71.68
2023-06-30T23:12:25.307Z,71.44
2023-06-30T23:14:52.569Z,71.08
2023-06-30T23:17:25.976Z,71.65
2023-06-30T23:19:53.002Z,72.40
2023-06-30T23:22:20.765Z,72.61
2023-06-30T23:24:48.142Z,73.10
2023-06-30T23:27:15.840Z,73.17
2023-06-30T23:29:45.887Z,71.97
2023-06-30T23:32:16.665Z,73.37
2023-06-30T23:34:44.392Z,73.38
2023-06-30T23:37:13.249Z,74.07
2023-06-30T23:39:40.828Z,74.95
2023-06-30T23:42:08.829Z,74.58
2023-06-30T23:44:36.079Z,75.00
2023-06-30T23:47:05.347Z,75.58
2023-06-30T23:49:32.967Z,76.58
2023-06-30T23:51:59.964Z,75.29
2023-06-30T23:54:26.633Z,75.64
2023-06-30T23:56:53.316Z,76.44
2023-06-30T23:59:19.942Z,75.40
